Date,TemperatureHighF,TemperatureAvgF,TemperatureLowF,DewpointHighF,DewpointAvgF,DewpointLowF,HumidityHigh,HumidityAvg,HumidityLow,PressureMaxIn,PressureMinIn,WindSpeedMaxMPH,WindSpeedAvgMPH,GustSpeedMaxMPH,PrecipitationSumIn
2012-1-1,28.6,22.3,14.5,19.2,10.6,2.3,69,60,54,30.42,29.94,18,7,22,0.00
2012-1-2,14.4,10.0,2.8,2.3,-2.2,-8.9,58,57,57,30.59,30.24,12,4,14,0.00
2012-1-3,38.1,23.4,9.0,30.1,12.7,-3.2,75,63,57,30.24,29.71,13,5,15,0.04
2012-1-4,40.8,30.2,21.9,29.2,22.8,16.7,84,74,61,30.03,29.86,8,2,9,0.00
2012-1-5,56.1,40.3,26.1,34.9,27.4,21.1,87,62,44,29.86,29.53,13,6,15,0.04
2012-1-6,43.0,35.9,30.6,28.0,25.1,21.8,76,65,44,29.94,29.59,21,8,25,0.00
2012-1-7,39.4,31.1,24.3,25.5,22.1,17.2,80,70,50,30.15,29.94,11,3,15,0.00
2012-1-8,41.0,30.1,17.6,25.8,18.7,13.0,85,65,42,30.15,29.83,11,3,15,0.00
2012-1-9,51.1,38.5,30.2,27.4,22.1,16.4,71,52,39,29.89,29.80,18,6,18,0.00
2012-1-10,51.8,39.7,28.9,34.5,26.9,21.2,86,61,42,29.83,29.59,10,2,11,0.00
2012-1-11,38.1,19.6,6.1,34.6,7.5,-6.6,91,60,45,30.03,29.65,19,7,21,0.04
2012-1-12,7.0,4.6,-1.1,-5.8,-8.0,-13.4,55,55,55,30.03,30.00,15,7,16,0.00
2012-1-13,14.4,5.7,-3.8,0.6,-8.0,-15.9,55,53,47,30.03,29.86,8,2,10,0.00
2012-1-14,33.8,22.2,12.2,27.3,14.1,-3.7,82,72,48,29.94,29.86,8,2,11,0.00
2012-1-15,35.1,27.3,20.1,22.3,18.2,11.4,89,69,54,29.92,29.56,12,5,17,0.00
2012-1-16,22.6,10.5,3.6,11.4,-1.2,-7.9,65,59,57,30.18,29.77,13,6,15,0.00
2012-1-17,3.4,-0.6,-5.4,-8.1,-11.8,-16.4,58,58,58,30.30,30.09,11,3,13,0.00
2012-1-18,8.6,-1.3,-12.3,-3.1,-12.5,-22.9,58,58,58,30.09,29.71,13,5,17,0.00
2012-1-19,2.5,-7.8,-16.6,-8.9,-18.7,-26.9,58,58,58,30.12,30.00,12,4,14,0.00
2012-1-20,11.7,2.3,-6.9,-0.3,-9.1,-17.8,58,58,58,30.18,30.00,5,1,8,0.00
2012-1-21,20.7,9.3,-3.1,13.7,-0.9,-14.2,74,63,58,30.15,29.50,19,5,20,0.00
2012-1-22,29.1,26.0,20.7,26.2,22.1,13.7,91,85,74,29.59,29.47,10,2,17,0.00
2012-1-23,28.2,20.6,16.7,27.0,16.3,9.2,95,83,72,29.94,29.59,11,5,13,0.00
2012-1-24,23.4,13.5,-0.6,18.4,7.1,-7.7,85,75,71,30.12,29.94,8,2,9,0.00
2012-1-25,32.9,30.7,22.8,32.0,29.2,16.6,98,94,84,30.09,29.59,11,4,12,0.00
2012-1-26,37.8,31.3,19.4,28.7,20.2,6.8,86,64,47,29.77,29.56,13,5,15,0.00
2012-1-27,34.5,26.4,17.8,32.3,16.9,8.1,92,68,50,29.92,29.56,15,6,18,0.00
2012-1-28,25.5,18.5,9.5,17.9,8.6,-0.2,83,65,52,30.03,29.89,12,5,14,0.00
2012-1-29,21.6,10.1,-3.5,14.5,2.5,-11.1,81,71,63,30.15,29.71,13,4,15,0.00
2012-1-30,36.7,29.1,21.6,30.9,22.2,13.9,81,75,64,29.71,29.50,11,3,13,0.04
2012-1-31,35.8,31.3,24.3,32.4,27.2,21.2,89,85,80,29.89,29.47,10,4,12,0.04
2012-2-1,41.0,29.6,22.5,38.1,25.1,17.5,98,84,60,30.03,29.92,5,1,6,0.04
2012-2-2,31.5,26.0,17.4,29.3,23.3,14.2,98,89,80,30.36,30.06,0,0,2,0.00
2012-2-3,29.5,27.6,26.1,29.0,27.1,25.6,98,98,97,30.48,30.36,0,0,0,0.00
2012-2-4,34.9,31.8,26.4,34.4,31.3,25.9,98,98,98,30.45,30.33,0,0,0,0.00
2012-2-5,39.7,31.7,19.9,34.9,28.0,19.5,98,87,65,30.33,30.03,8,2,11,0.00
2012-2-6,33.1,26.6,13.1,25.3,19.5,5.8,80,74,68,30.48,30.00,15,6,17,0.00
2012-2-7,17.8,10.2,3.6,6.5,-1.0,-8.6,72,61,44,30.65,30.48,10,4,12,0.00
2012-2-8,30.4,16.2,2.7,11.4,0.3,-11.7,55,49,44,30.48,30.12,10,3,12,0.00
2012-2-9,34.5,17.0,3.2,19.2,3.1,-13.3,71,54,42,30.24,29.83,15,6,17,0.00
2012-2-10,4.5,-2.6,-8.9,-12.2,-18.7,-24.4,45,45,45,30.65,30.24,13,6,17,0.00
2012-2-11,16.0,3.2,-6.5,-2.3,-13.6,-22.3,45,45,43,30.65,30.45,11,3,13,0.00
2012-2-12,30.2,13.5,-3.6,5.7,-5.7,-20.1,48,42,34,30.45,29.89,6,2,10,0.00
2012-2-13,35.8,23.3,12.2,14.9,7.6,-0.2,64,51,42,29.89,29.62,6,2,11,0.00
2012-2-14,35.1,26.9,18.0,22.6,16.9,9.0,74,66,55,29.71,29.56,6,1,8,0.00
2012-2-15,36.3,29.5,21.2,31.2,21.3,13.8,84,71,61,29.97,29.71,11,3,12,0.00
2012-2-16,40.1,29.9,18.9,20.3,17.6,13.4,81,61,42,30.06,29.86,11,4,12,0.00
2012-2-17,32.2,26.6,20.7,21.2,16.6,9.0,85,67,49,30.18,29.89,10,4,11,0.00
2012-2-18,40.5,25.9,11.1,19.6,12.7,3.3,80,58,41,30.18,29.97,10,2,11,0.00
2012-2-19,47.1,33.9,24.1,23.4,18.0,13.2,67,53,39,29.97,29.77,11,5,15,0.00
2012-2-20,36.3,34.7,33.3,35.0,28.4,20.8,97,79,57,29.83,29.53,9,3,11,0.00
2012-2-21,34.5,30.0,16.7,33.8,23.2,6.6,98,76,58,29.53,29.47,14,4,15,0.00
2012-2-22,28.8,21.1,10.9,22.0,13.9,4.6,91,74,62,29.50,29.35,6,2,8,0.00
2012-2-23,34.3,22.8,10.0,30.3,16.9,7.2,90,79,57,29.77,29.38,13,2,16,0.00
2012-2-24,25.7,17.5,8.1,15.1,7.1,-1.9,74,63,53,30.15,29.77,15,6,15,0.00
2012-2-25,23.0,11.9,0.5,12.3,0.5,-9.1,65,60,49,30.18,29.83,13,3,13,0.00
2012-2-26,30.7,24.9,16.2,30.0,22.3,12.3,98,90,62,30.12,29.62,13,7,17,0.00
2012-2-27,16.2,10.4,2.3,13.2,6.0,-0.9,88,82,74,30.42,30.12,11,4,14,0.00
2012-2-28,36.1,29.0,14.4,33.1,22.4,9.7,98,76,65,30.21,29.65,11,6,13,0.04
2012-2-29,35.4,32.8,28.8,34.9,32.1,28.3,98,97,88,29.74,29.50,13,7,16,0.00
2012-3-1,36.3,30.2,24.8,35.1,28.4,22.8,98,93,78,29.74,29.62,11,3,11,0.08
2012-3-2,32.2,25.4,18.7,27.3,21.2,15.5,93,84,77,29.71,29.53,15,6,17,0.00
2012-3-3,18.7,11.9,1.6,15.5,4.7,-8.4,87,73,60,29.89,29.71,11,4,15,0.00
2012-3-4,21.7,12.1,1.2,16.3,4.5,-8.8,81,71,62,30.06,29.80,8,2,8,0.00
2012-3-5,36.9,23.8,3.4,28.7,16.9,-2.7,88,75,64,30.03,29.62,13,4,17,0.04
2012-3-6,39.9,34.6,29.8,31.0,27.5,24.0,90,76,60,29.62,29.41,9,4,12,0.00
2012-3-7,33.8,25.3,17.4,30.9,17.9,10.3,89,73,62,30.00,29.59,13,5,17,0.00
2012-3-8,35.8,23.6,13.1,27.9,13.3,0.7,85,65,48,30.45,29.97,27,6,27,0.00
2012-3-9,30.4,19.6,6.1,22.8,6.3,-5.9,73,56,44,30.48,29.83,13,4,17,0.00
2012-3-10,50.2,37.5,27.5,31.0,26.5,22.0,80,66,46,29.83,29.71,8,2,11,0.16
2012-3-11,54.9,44.1,34.5,45.2,35.1,28.6,85,71,54,29.77,29.62,11,4,12,0.00
2012-3-12,55.8,46.4,38.3,50.4,39.9,25.7,98,80,42,29.80,29.53,13,4,15,0.32
2012-3-13,62.4,47.8,32.0,47.0,32.5,22.3,76,57,36,29.89,29.53,15,6,21,0.00
2012-3-14,56.8,50.5,41.0,46.9,30.3,20.0,79,49,28,29.97,29.50,11,4,15,0.00
2012-3-15,63.0,46.1,31.5,29.0,24.5,19.7,74,45,26,30.03,29.92,12,2,12,0.00
2012-3-16,75.0,55.6,37.6,46.1,34.9,20.9,62,47,33,29.92,29.56,12,4,15,0.00
2012-3-17,74.7,63.2,50.7,57.0,52.0,43.2,92,68,50,29.62,29.53,8,4,13,0.00
2012-3-18,77.9,67.7,60.6,59.6,55.0,49.8,89,66,42,29.56,29.38,19,7,20,0.00
2012-3-19,74.5,65.3,57.7,59.4,54.1,44.2,83,68,47,29.53,29.38,15,5,22,0.00
2012-3-20,58.5,51.7,42.8,55.6,32.3,23.6,92,51,29,29.89,29.53,11,4,14,0.00
2012-3-21,70.7,53.9,37.2,38.4,29.6,23.7,80,43,23,30.00,29.86,11,1,13,0.00
2012-3-22,66.6,54.2,40.5,58.3,44.9,27.2,92,72,44,30.03,29.92,6,1,8,0.00
2012-3-23,68.4,62.2,57.4,67.3,58.6,53.5,98,89,61,29.92,29.83,7,2,7,0.00
2012-3-24,65.3,49.2,35.6,60.5,43.9,26.4,98,83,45,30.18,29.86,15,4,17,0.00
2012-3-25,45.0,36.5,27.3,26.6,19.4,12.7,73,51,38,30.27,30.15,16,7,16,0.00
2012-3-26,51.6,44.0,38.3,32.1,24.2,17.9,61,46,40,30.18,29.53,22,10,26,0.00
2012-3-27,55.0,47.3,40.6,42.3,35.1,29.9,80,63,47,29.83,29.30,29,11,29,0.00
2012-3-28,46.4,40.3,37.0,33.3,30.7,28.4,79,69,51,30.06,29.86,10,4,11,0.00
2012-3-29,47.8,42.5,38.1,43.8,35.4,29.0,91,76,62,30.00,29.74,15,5,19,0.16
2012-3-30,60.4,45.6,33.1,46.8,38.4,30.5,98,78,48,29.77,29.68,11,2,13,0.00
2012-3-31,71.8,57.8,50.0,52.7,44.5,34.1,93,67,27,29.68,29.59,13,4,15,0.00
2012-4-1,72.0,60.0,50.7,50.9,43.2,33.6,98,60,29,29.62,29.41,15,6,20,0.00
2012-4-2,60.3,53.4,45.9,42.0,37.1,33.7,73,55,37,30.00,29.47,17,6,17,0.00
2012-4-3,62.2,49.5,36.9,36.4,27.9,20.5,72,47,25,30.18,30.00,11,5,16,0.00
2012-4-4,64.8,49.9,30.6,28.5,21.1,16.6,68,35,20,30.09,29.92,10,2,11,0.00
2012-4-5,65.1,52.6,39.4,30.2,24.7,17.7,43,34,26,30.03,29.92,13,5,15,0.00
2012-4-6,66.4,54.8,41.2,30.5,25.5,22.6,48,33,24,30.06,29.83,18,7,24,0.00
2012-4-7,57.2,50.8,41.0,39.0,24.4,14.7,60,36,27,30.09,29.77,25,11,28,0.00
2012-4-8,58.1,47.2,32.5,27.4,20.2,14.7,57,35,25,30.12,30.00,22,8,24,0.00
2012-4-9,45.0,36.1,28.6,18.1,14.5,9.2,54,41,32,30.18,30.09,15,6,22,0.00
2012-4-10,41.0,31.8,23.7,16.0,12.1,7.7,57,44,35,30.33,30.15,12,5,14,0.00
2012-4-11,50.9,35.8,18.0,19.9,13.4,4.9,62,41,27,30.39,30.12,6,2,9,0.00
2012-4-12,66.2,50.0,34.3,28.5,21.2,11.4,46,33,23,30.12,29.83,13,5,19,0.00
2012-4-13,54.9,51.0,47.7,51.6,41.4,27.6,96,73,36,29.86,29.53,20,6,20,0.24
2012-4-14,70.5,57.2,39.4,51.0,39.2,33.1,96,57,27,29.71,29.56,11,3,15,0.00
2012-4-15,61.0,50.5,37.4,44.6,38.4,31.3,92,66,35,29.65,29.50,19,8,21,0.56
2012-4-16,44.6,36.3,29.7,32.4,20.8,15.4,82,55,34,30.12,29.65,15,7,18,0.00
2012-4-17,61.7,45.5,27.9,40.8,30.7,17.9,78,58,40,30.15,29.83,14,4,21,0.00
2012-4-18,54.0,48.9,41.0,51.0,37.1,28.7,94,66,40,29.97,29.74,13,4,17,0.24
2012-4-19,56.7,48.6,38.8,32.3,28.5,24.9,72,47,33,30.00,29.94,8,2,9,0.00
2012-4-20,59.4,48.9,37.9,34.6,26.6,20.1,55,42,33,30.06,29.86,9,2,11,0.00
2012-4-21,57.6,48.7,41.2,52.9,40.0,30.5,91,73,50,30.06,29.71,23,6,23,0.08
2012-4-22,61.7,47.3,36.7,37.2,31.7,26.1,91,60,30,30.24,30.06,9,3,11,0.00
2012-4-23,74.1,56.5,37.2,37.8,33.2,27.7,80,46,22,30.12,29.68,12,2,14,0.00
2012-4-24,77.0,63.7,48.2,41.3,37.5,33.7,60,39,26,29.68,29.41,11,4,12,0.00
2012-4-25,73.8,62.4,49.8,45.9,38.3,27.6,68,42,30,29.94,29.38,13,5,16,0.00
2012-4-26,60.4,47.5,33.3,28.3,22.0,18.2,63,39,24,30.18,29.94,11,5,14,0.00
2012-4-27,51.1,48.3,43.9,36.8,26.3,20.0,75,43,31,30.06,29.92,11,5,15,0.04
2012-4-28,47.1,45.0,43.2,39.9,31.4,21.8,84,60,41,30.09,29.94,13,6,17,0.04
2012-4-29,55.9,50.2,44.8,46.5,43.4,39.3,88,78,64,30.09,29.89,17,6,17,0.00
2012-4-30,68.9,57.2,47.7,50.2,40.3,32.9,90,58,30,29.89,29.65,11,3,15,0.00
2012-5-1,75.4,64.4,56.8,58.9,50.4,35.7,81,62,43,29.65,29.41,13,4,15,0.00
2012-5-2,78.1,64.0,48.4,58.3,41.2,32.1,93,50,21,29.74,29.50,12,3,14,0.00
2012-5-3,71.6,61.7,51.8,48.3,41.5,34.5,83,50,29,29.94,29.71,11,4,13,0.12
2012-5-4,65.5,57.9,52.2,52.8,45.2,36.3,89,64,45,30.00,29.89,10,4,13,0.00
2012-5-5,69.8,59.4,50.0,51.5,46.4,41.3,75,63,47,30.00,29.86,11,4,11,0.00
2012-5-6,73.4,61.3,53.2,52.8,41.6,29.8,83,54,22,29.94,29.89,14,4,18,0.00
2012-5-7,62.1,55.4,48.4,46.0,37.4,31.0,78,52,36,29.92,29.83,17,8,21,0.00
2012-5-8,56.3,52.5,48.7,51.0,43.5,39.1,94,72,54,30.03,29.86,12,5,15,0.04
2012-5-9,67.3,56.2,41.5,45.5,37.4,32.7,83,53,31,30.03,29.80,9,2,14,0.00
2012-5-10,81.3,66.1,48.7,45.0,40.9,35.9,70,43,27,29.83,29.59,13,4,20,0.00
2012-5-11,66.2,57.2,47.3,46.4,32.6,16.9,84,43,23,30.21,29.74,15,6,17,0.08
2012-5-12,74.3,58.9,37.8,32.2,26.4,19.0,54,31,18,30.30,30.12,15,4,19,0.00
2012-5-13,82.4,67.4,51.8,37.9,32.9,26.3,46,29,19,30.15,29.89,20,7,23,0.00
2012-5-14,88.2,71.6,52.5,43.8,36.3,25.9,55,30,16,29.92,29.74,15,4,20,0.00
2012-5-15,73.8,62.2,52.5,34.5,31.2,27.5,50,32,21,30.09,29.77,13,6,16,0.00
2012-5-16,77.0,62.7,45.5,35.1,30.0,22.1,49,30,21,30.12,29.80,11,4,13,0.00
2012-5-17,90.3,74.9,60.8,46.1,38.4,28.8,35,27,20,29.80,29.47,14,5,17,0.00
2012-5-18,93.9,78.9,64.8,55.3,45.8,39.6,62,33,18,29.56,29.47,15,4,17,0.08
2012-5-19,74.3,61.0,52.0,56.4,49.0,44.3,83,66,46,29.97,29.53,14,6,14,0.00
2012-5-20,72.7,60.1,47.8,45.6,37.9,27.8,83,50,24,30.12,29.97,11,4,17,0.00
2012-5-21,79.0,64.3,46.0,40.8,35.8,28.0,62,37,22,30.15,29.86,12,3,15,0.00
2012-5-22,90.5,75.2,60.1,54.8,47.0,38.1,63,39,27,29.86,29.32,15,5,21,0.35
2012-5-23,70.3,66.4,54.5,63.3,54.2,46.0,87,66,50,29.47,29.32,11,3,15,0.36
2012-5-24,68.7,60.0,50.0,53.5,43.5,34.7,83,58,34,29.71,29.44,11,3,13,0.00
2012-5-25,65.7,55.2,41.9,40.1,34.6,29.5,77,48,33,30.09,29.71,13,5,17,0.00
2012-5-26,65.8,56.7,48.7,56.5,41.6,30.4,89,58,41,30.12,29.77,10,5,12,0.00
2012-5-27,79.0,67.3,58.3,67.7,60.9,52.6,98,81,62,29.80,29.47,13,5,17,1.03
2012-5-28,65.1,58.8,53.2,53.3,46.0,34.7,86,65,38,29.68,29.56,17,5,20,0.04
2012-5-29,54.3,51.3,46.0,46.4,38.4,32.5,84,62,45,30.00,29.62,13,7,15,0.00
2012-5-30,60.3,51.6,39.7,43.3,34.1,30.0,86,55,34,30.03,29.94,6,1,7,0.00
2012-5-31,72.3,58.7,44.1,45.3,37.5,30.8,84,50,24,30.06,29.92,6,2,9,0.00
2012-6-1,70.0,59.2,47.5,53.2,39.9,31.3,79,52,26,29.92,29.74,11,2,13,0.00
2012-6-2,81.3,66.5,50.5,60.0,44.7,36.1,94,53,23,29.77,29.68,11,2,11,0.00
2012-6-3,82.4,67.8,56.8,60.3,49.5,38.5,77,54,32,29.80,29.68,6,1,12,0.35
2012-6-4,84.9,73.0,58.5,58.5,45.5,38.8,84,43,21,29.94,29.80,9,2,11,0.00
2012-6-5,87.6,75.1,55.9,50.9,45.1,40.9,74,37,22,29.97,29.86,8,2,10,0.00
2012-6-6,85.6,74.4,65.1,57.3,48.8,42.4,59,42,23,29.92,29.86,8,3,11,0.00
2012-6-7,91.4,77.3,68.2,64.9,56.9,51.1,70,51,29,29.94,29.80,10,4,13,0.00
2012-6-8,87.1,76.4,65.8,60.9,54.2,49.1,78,49,29,29.83,29.62,14,4,17,0.00
2012-6-9,94.5,82.0,65.8,59.1,54.2,50.9,78,41,27,29.62,29.38,15,4,17,0.00
2012-6-10,83.8,67.0,60.4,62.2,58.3,52.1,94,75,34,29.65,29.44,15,4,19,0.32
2012-6-11,64.6,58.3,50.4,57.2,43.8,33.5,88,60,42,30.03,29.53,23,9,28,0.04
2012-6-12,73.0,59.8,45.3,42.7,39.4,35.7,75,50,32,30.15,29.94,8,2,11,0.00
2012-6-13,74.8,66.8,55.9,53.6,47.6,40.0,61,51,42,29.97,29.68,11,5,16,0.04
2012-6-14,82.8,71.7,62.8,63.2,54.8,46.4,93,59,29,29.80,29.62,13,5,16,0.99
2012-6-15,84.6,73.2,59.2,57.2,51.6,46.5,81,50,29,29.94,29.77,8,3,9,0.00
2012-6-16,74.5,69.1,62.6,65.0,52.1,41.7,88,57,34,29.92,0.00,15,6,17,0.04
2012-6-17,83.3,70.8,57.4,65.1,53.4,44.3,87,56,32,29.80,29.32,11,4,14,0.00
2012-6-18,84.2,74.0,66.0,67.8,54.3,45.3,94,56,29,29.62,29.32,15,5,16,0.00
2012-6-19,70.0,65.6,60.3,64.8,59.3,48.3,93,81,49,29.71,29.59,8,3,14,0.36
2012-6-20,75.2,66.4,61.0,64.7,57.7,49.1,98,76,46,29.83,29.62,11,4,13,0.52
2012-6-21,78.3,66.4,57.4,57.4,50.8,44.8,91,61,32,29.97,29.83,11,5,14,0.00
2012-6-22,79.9,68.9,55.9,56.8,48.1,42.2,82,51,27,30.00,29.86,8,2,9,0.00
2012-6-23,84.2,73.5,63.9,64.3,56.2,48.2,76,56,37,29.89,29.71,12,3,12,0.00
2012-6-24,77.9,70.5,61.0,64.2,50.2,40.5,86,52,27,30.09,29.89,8,4,10,0.00
2012-6-25,82.0,71.8,58.5,55.2,49.4,44.5,76,48,30,30.12,29.89,11,4,13,0.00
2012-6-26,83.8,74.1,66.9,58.9,51.7,46.1,52,46,40,29.92,29.53,13,5,16,0.20
2012-6-27,80.6,75.0,70.5,68.9,63.5,53.7,82,68,50,29.65,29.47,10,4,12,0.00
2012-6-28,88.5,75.0,58.1,52.3,45.1,41.2,68,39,20,29.92,29.83,12,4,15,0.04
2012-6-29,89.1,76.3,58.5,56.9,49.5,45.0,76,42,25,29.86,29.74,6,1,12,0.00
2012-6-30,87.6,76.9,61.0,56.5,52.8,48.0,75,45,29,29.89,29.77,9,2,13,0.00
2012-7-1,93.7,82.0,67.3,69.8,62.8,52.3,79,54,33,29.83,29.74,6,1,10,0.00
2012-7-2,95.4,84.5,75.6,73.5,69.9,64.2,90,64,40,29.77,29.59,8,3,10,0.00
2012-7-3,94.1,83.0,70.5,70.3,64.0,60.5,86,55,34,29.77,29.62,8,2,8,0.00
2012-7-4,94.8,84.6,78.8,76.3,71.2,63.3,89,67,37,29.77,29.56,10,4,13,0.00
2012-7-5,90.0,78.8,61.9,66.1,47.6,41.2,67,36,21,29.97,29.77,8,2,13,0.00
2012-7-6,77.5,71.3,65.5,63.8,57.3,48.2,88,63,37,30.06,29.86,11,4,13,0.28
2012-7-7,86.9,75.5,62.8,63.5,56.4,49.6,91,56,29,30.15,30.06,8,2,12,0.00
2012-7-8,86.2,75.6,66.7,66.9,58.1,48.6,80,57,30,30.15,30.06,8,2,10,0.00
2012-7-9,87.8,74.9,59.7,60.5,52.6,48.5,82,49,29,30.15,30.09,8,1,8,0.00
2012-7-10,89.2,77.1,63.9,63.7,55.7,51.0,85,52,28,30.12,30.00,8,2,10,0.00
2012-7-11,91.2,79.0,65.7,62.3,57.8,53.9,82,51,31,30.00,29.86,11,4,11,0.00
2012-7-12,88.2,76.5,69.6,68.6,62.3,58.3,84,63,39,29.92,29.80,9,3,12,0.04
2012-7-13,89.6,78.2,68.2,66.7,60.8,54.2,85,59,31,29.92,29.83,13,2,13,0.00
2012-7-14,92.7,81.4,68.5,71.0,60.7,53.4,86,54,28,30.00,29.92,8,2,9,0.00
2012-7-15,90.3,81.3,72.7,70.4,63.1,58.2,87,56,37,29.97,29.68,20,4,21,0.00
2012-7-16,92.1,82.7,69.1,70.7,66.5,61.5,80,59,38,29.77,29.59,9,5,13,0.04
2012-7-17,79.7,73.1,68.5,68.0,63.5,60.3,94,73,52,29.86,29.77,8,2,11,0.08
2012-7-18,84.9,75.9,70.0,66.3,64.1,61.1,85,68,46,29.89,29.83,8,2,8,0.00
2012-7-19,90.3,79.4,69.4,77.6,70.1,66.3,98,76,51,29.94,29.89,13,3,13,0.00
2012-7-20,98.1,85.2,74.3,72.4,63.5,53.4,90,54,26,29.97,29.89,8,3,11,0.00
2012-7-21,88.9,80.2,69.4,55.5,52.0,48.2,58,39,25,30.03,29.89,9,3,11,0.00
2012-7-22,97.0,81.6,69.4,70.2,62.7,54.1,79,55,34,29.92,29.77,12,4,20,0.00
2012-7-23,81.7,74.4,66.4,64.4,60.6,56.0,77,63,45,30.00,29.86,8,2,11,0.00
2012-7-24,87.6,77.3,69.3,73.6,64.5,58.9,90,66,45,29.92,29.65,11,3,11,0.36
2012-7-25,90.7,78.2,67.5,78.7,65.2,47.3,97,70,29,29.71,29.56,11,4,13,0.44
2012-7-26,77.5,68.8,61.2,60.2,55.7,50.7,86,64,42,29.92,29.65,13,5,15,0.12
2012-7-27,81.3,69.9,59.5,58.6,53.2,46.5,90,60,31,30.03,29.92,8,2,11,0.00
2012-7-28,85.3,73.1,62.6,70.3,60.0,52.1,89,66,41,30.03,29.89,11,3,13,0.35
2012-7-29,87.3,77.7,68.4,72.3,67.5,63.2,95,73,48,29.94,29.77,10,2,13,0.00
2012-7-30,86.9,77.3,65.5,67.9,58.1,53.3,84,54,33,29.94,29.80,9,3,11,0.04
2012-7-31,88.2,76.3,65.5,67.5,62.0,56.2,90,64,39,29.94,29.80,8,2,11,0.00
2012-8-1,86.4,77.3,70.2,71.2,61.2,50.9,91,61,31,29.86,29.74,10,3,13,0.08
2012-8-2,87.1,75.0,62.2,62.0,55.6,50.2,87,55,29,29.86,29.80,11,2,11,0.00
2012-8-3,87.4,76.1,67.5,68.6,62.0,54.4,86,63,41,29.80,29.56,13,5,17,0.00
2012-8-4,75.9,66.9,58.6,62.9,53.4,47.7,88,64,39,30.03,29.71,15,6,17,0.00
2012-8-5,79.5,65.5,50.7,55.3,48.1,42.6,88,58,31,30.12,29.97,12,3,13,0.00
2012-8-6,90.7,74.5,58.5,62.4,56.8,53.5,89,58,30,30.00,29.89,8,2,9,0.00
2012-8-7,85.1,74.9,61.7,60.4,48.8,43.2,75,41,29,30.03,29.92,8,2,9,0.00
2012-8-8,80.6,71.2,66.0,67.5,59.9,49.5,96,71,37,30.00,29.94,7,2,9,0.52
2012-8-9,73.9,68.3,63.1,63.1,54.8,47.9,96,65,40,30.12,29.97,9,4,12,0.00
2012-8-10,77.5,67.1,55.0,58.9,50.1,44.7,89,58,32,30.18,30.03,7,2,9,0.00
2012-8-11,74.1,65.8,56.3,56.5,52.1,48.6,84,63,44,30.03,29.94,10,2,11,0.00
2012-8-12,76.3,67.6,62.2,62.1,56.4,49.1,91,70,42,30.00,29.94,8,2,8,0.00
2012-8-13,78.6,69.2,59.4,58.1,50.1,42.9,87,55,31,30.03,29.94,8,2,8,0.00
2012-8-14,76.3,66.3,55.9,58.2,50.5,44.0,87,59,35,29.97,29.77,6,2,9,0.00
2012-8-15,80.2,67.5,60.8,65.5,57.3,51.1,86,71,56,29.89,29.62,20,5,22,0.00
2012-8-16,71.8,62.9,54.3,51.1,42.0,35.0,79,49,29,30.06,29.86,12,5,13,0.00
2012-8-17,76.5,62.2,46.4,47.4,42.2,37.0,77,51,30,30.12,29.94,8,2,11,0.00
2012-8-18,81.5,65.6,51.1,53.4,46.4,39.6,84,54,24,30.00,29.92,12,2,12,0.00
2012-8-19,77.0,65.5,54.3,55.5,46.8,38.0,91,56,28,30.06,29.97,6,1,11,0.00
2012-8-20,79.7,65.0,49.1,51.6,42.2,38.3,81,47,24,30.06,29.92,6,1,9,0.00
2012-8-21,84.6,68.2,52.2,53.9,47.3,39.1,82,50,28,30.00,29.89,15,2,15,0.00
2012-8-22,88.9,73.3,59.2,57.7,54.4,51.5,85,56,29,29.92,29.77,9,2,11,0.00
2012-8-23,89.4,74.8,61.5,65.4,57.5,53.4,89,58,30,29.80,29.71,8,1,11,0.00
2012-8-24,95.0,79.1,64.2,68.7,60.3,47.6,93,59,21,29.80,29.65,10,3,13,0.00
2012-8-25,79.2,71.0,59.7,65.9,49.9,39.4,79,50,26,29.94,29.68,9,4,15,0.04
2012-8-26,84.7,69.1,52.3,51.6,44.5,39.9,80,46,22,30.15,29.94,11,3,14,0.00
2012-8-27,84.7,70.5,53.8,57.3,49.1,45.3,81,50,29,30.33,30.12,8,1,8,0.00
2012-8-28,88.9,76.2,65.5,62.1,57.2,50.5,76,54,31,30.24,30.00,10,3,13,0.00
2012-8-29,95.0,79.3,67.3,67.6,62.2,57.2,93,60,29,30.12,29.80,13,3,15,0.00
2012-8-30,81.5,73.9,62.2,64.5,48.7,37.1,77,43,25,30.21,29.89,10,3,13,0.36
2012-8-31,80.8,68.5,52.9,48.4,42.9,38.0,69,42,24,30.54,30.21,6,1,8,0.00
2012-9-1,87.3,75.5,63.3,53.8,48.6,43.6,66,40,30,30.62,30.06,17,5,19,0.00
2012-9-2,87.8,74.9,63.3,61.9,53.2,44.9,62,48,32,30.62,29.97,13,4,17,0.00
2012-9-3,87.4,68.8,53.4,56.7,49.9,43.5,88,55,25,30.98,30.56,11,2,14,0.00
2012-9-4,86.9,71.7,60.1,57.9,48.7,35.7,85,50,20,31.36,30.77,9,2,11,0.00
2012-9-5,75.9,66.2,55.0,49.2,43.2,36.4,75,46,28,31.78,31.27,12,4,15,0.08
2012-9-6,69.1,60.3,51.1,52.4,45.8,40.5,80,60,43,31.98,0.00,6,1,9,0.00
2012-9-7,69.4,60.2,52.9,52.8,42.3,36.1,83,55,33,31.98,0.00,13,4,15,0.00
2012-9-8,69.8,59.7,49.6,45.1,40.3,37.8,74,51,33,31.98,0.00,13,5,17,0.00
2012-9-9,74.5,59.1,41.9,51.0,38.8,33.6,85,51,25,31.98,0.00,8,2,11,0.00
2012-9-10,90.1,72.2,56.3,45.8,42.3,37.3,57,37,20,31.98,0.00,13,4,18,0.00
2012-9-11,79.9,70.3,59.9,50.2,39.9,26.1,51,35,21,0.00,0.00,12,4,13,0.00
2012-9-12,73.0,62.0,49.8,32.0,28.5,17.4,43,29,19,0.00,0.00,18,5,18,0.00
2012-9-13,74.1,57.1,39.9,32.7,26.7,17.0,52,33,21,0.00,0.00,11,3,15,0.00
2012-9-14,75.6,60.0,44.1,38.6,32.4,26.6,68,38,22,0.00,0.00,6,1,8,0.00
2012-9-15,87.8,65.5,46.0,42.7,36.6,30.6,64,37,20,0.00,0.00,10,3,12,0.00
2012-9-16,66.7,58.3,50.7,44.9,38.8,34.8,69,49,35,0.00,0.00,10,4,11,0.04
2012-9-17,59.9,49.3,39.2,43.0,33.3,27.3,74,55,35,0.00,0.00,13,2,15,0.00
2012-9-18,60.1,48.2,36.3,43.4,33.0,27.3,88,59,35,0.00,0.00,11,3,13,0.04
2012-9-19,65.3,58.2,49.1,43.3,34.0,24.7,65,41,27,0.00,0.00,16,6,19,0.00
2012-9-20,66.6,55.1,41.7,36.5,30.5,25.9,57,40,25,0.00,0.00,12,4,21,0.00
2012-9-21,65.1,52.5,41.4,44.2,33.4,17.8,81,51,25,0.00,0.00,17,4,17,0.00
2012-9-22,56.7,44.4,33.1,30.7,25.8,18.6,74,50,32,0.00,0.00,9,3,12,0.00
2012-9-23,63.1,45.2,27.7,32.3,23.1,17.5,72,45,25,0.00,0.00,8,1,9,0.00
2012-9-24,81.0,57.7,36.1,40.1,28.8,19.3,53,36,20,0.00,0.00,16,4,16,0.00
2012-9-25,61.7,49.4,36.9,35.2,30.6,27.2,76,50,32,0.00,0.00,8,2,10,0.00
2012-9-26,65.1,48.9,32.0,37.3,27.8,22.3,73,46,26,0.00,0.00,4,0,6,0.00
2012-9-27,74.3,56.6,39.9,35.1,29.4,23.6,66,38,23,0.00,0.00,11,3,12,0.00
2012-9-28,84.2,62.5,46.0,40.3,33.1,24.0,49,35,21,0.00,0.00,9,2,9,0.00
2012-9-29,83.8,64.5,46.2,37.6,34.0,27.2,66,36,19,0.00,0.00,6,1,8,0.00
2012-9-30,84.6,65.7,46.9,44.2,36.4,27.9,54,35,20,0.00,0.00,10,3,13,0.00
2012-10-1,69.1,60.2,45.1,38.8,32.0,21.1,49,35,23,0.00,0.00,11,4,17,0.04
2012-10-2,76.1,58.2,39.9,33.5,28.1,22.3,52,34,21,0.00,0.00,15,3,17,0.00
2012-10-3,56.1,51.2,45.1,40.5,34.8,26.5,75,54,36,0.00,0.00,13,4,17,0.04
2012-10-4,45.1,40.2,35.6,39.9,33.4,24.4,98,78,54,0.00,0.00,21,9,22,0.32
2012-10-5,42.8,35.8,30.9,32.4,26.1,22.7,86,68,47,0.00,0.00,15,8,19,0.00
2012-10-6,47.1,37.6,28.9,33.5,24.6,16.8,89,62,38,0.00,0.00,10,3,10,0.12
2012-10-7,58.8,42.7,29.5,27.0,20.8,16.6,62,43,27,0.00,0.00,11,3,14,0.00
2012-10-8,55.6,46.3,37.9,44.8,31.0,19.3,75,56,42,0.00,0.00,13,4,18,0.00
2012-10-9,43.5,40.0,33.8,31.3,24.9,19.3,73,55,39,0.00,0.00,15,7,17,0.00
2012-10-10,50.7,39.1,28.9,37.3,28.5,21.4,89,68,34,0.00,0.00,9,4,13,0.00
2012-10-11,46.2,38.6,27.0,37.2,25.4,12.5,93,62,37,0.00,0.00,9,3,12,0.00
2012-10-12,54.0,39.7,24.8,22.0,18.2,11.9,69,45,26,0.00,0.00,17,5,17,0.00
2012-10-13,65.3,51.6,41.9,37.2,30.8,17.8,72,46,29,0.00,0.00,8,4,11,0.00
2012-10-14,56.1,44.6,35.8,37.2,31.3,26.7,87,61,41,0.00,0.00,9,3,11,0.00
2012-10-15,67.3,50.2,34.7,37.1,32.8,27.1,84,55,32,0.00,0.00,15,4,17,0.00
2012-10-16,71.4,61.4,51.4,48.8,41.8,33.7,78,50,33,0.00,0.00,6,2,9,0.00
2012-10-17,58.8,51.5,46.2,51.4,45.1,39.8,94,80,51,0.00,0.00,16,6,19,0.80
2012-10-18,52.0,47.9,44.2,51.2,46.0,42.1,98,93,87,0.00,0.00,18,8,26,0.68
2012-10-19,44.6,43.6,42.6,42.6,41.1,39.4,95,91,86,0.00,0.00,17,5,18,0.16
2012-10-20,52.7,46.7,43.2,45.8,42.4,38.7,96,85,69,0.00,0.00,13,4,17,0.00
2012-10-21,57.9,49.6,45.1,51.1,43.7,38.3,93,81,58,0.00,0.00,11,3,15,0.00
2012-10-22,53.6,47.6,41.9,43.4,36.3,30.9,83,66,52,0.00,0.00,8,3,10,0.00
2012-10-23,59.7,55.2,50.9,59.2,53.4,43.4,98,94,76,0.00,0.00,11,3,15,0.00
2012-10-24,52.9,42.0,36.7,50.8,35.0,27.5,94,76,69,0.00,0.00,11,5,13,0.00
2012-10-25,39.7,36.5,33.8,27.6,23.4,19.1,77,59,45,0.00,0.00,16,8,17,0.00
2012-10-26,39.9,35.8,33.1,21.4,16.6,13.2,56,46,36,0.00,0.00,17,8,24,0.00
2012-10-27,37.6,31.5,24.6,32.6,21.2,15.6,97,67,42,0.00,0.00,6,2,8,0.00
2012-10-28,38.1,33.8,26.2,34.9,30.1,23.4,98,87,72,0.00,0.00,6,2,7,0.04
2012-10-29,50.7,43.2,38.3,34.1,28.0,24.4,84,56,41,0.00,0.00,13,5,14,0.00
2012-10-30,46.2,41.7,34.7,27.4,24.6,20.6,66,51,40,0.00,0.00,11,4,13,0.00
2012-10-31,53.1,43.8,35.6,37.2,31.4,27.0,84,63,41,31.95,0.00,10,4,13,0.00
2012-11-1,40.8,31.9,28.8,35.4,21.8,16.6,83,66,54,27.41,26.37,11,4,13,0.00
2012-11-2,36.3,32.3,27.9,32.4,24.9,18.5,92,74,59,26.37,26.37,5,0,6,0.00
2012-11-3,38.8,36.2,33.8,33.8,31.4,28.8,89,83,69,26.37,26.37,6,1,6,0.04
2012-11-4,40.3,37.8,35.2,37.2,32.7,29.0,95,82,66,26.37,26.37,4,0,5,0.00
2012-11-5,44.1,38.7,35.6,39.1,32.5,29.4,95,79,58,26.37,26.37,11,3,15,0.08
2012-11-6,45.9,42.0,37.2,42.4,33.9,31.3,96,73,60,26.37,26.37,19,6,22,0.00
2012-11-7,46.9,39.3,27.7,35.8,29.7,22.0,87,69,49,26.37,26.37,15,4,16,0.00
2012-11-8,42.8,39.0,33.8,36.3,31.2,27.3,82,74,63,26.37,26.37,13,5,17,0.00
2012-11-9,40.3,35.9,32.2,33.0,28.4,26.0,86,74,67,26.37,26.37,10,5,11,0.00
2012-11-10,43.7,41.4,34.9,43.2,40.2,33.0,98,96,76,26.37,26.37,12,4,15,0.08
2012-11-11,34.9,23.2,18.5,34.0,14.9,7.9,98,71,58,26.37,26.37,0,0,15,0.00
2012-11-12,23.0,17.8,12.9,13.8,7.9,3.2,76,65,60,26.37,26.37,0,0,0,0.00
2012-11-13,33.3,24.7,12.7,25.5,17.2,3.2,79,73,65,26.37,26.37,0,0,0,0.00
2012-11-14,47.3,31.9,20.1,35.7,25.4,14.9,92,77,62,26.37,26.37,6,1,8,0.00
2012-11-15,35.8,29.6,19.9,32.0,18.6,9.2,86,65,45,26.37,26.37,10,2,11,0.00
2012-11-16,41.5,30.3,19.9,23.3,16.2,12.9,79,58,37,26.37,26.37,15,5,18,0.00
2012-11-17,50.5,40.2,32.9,34.9,30.7,23.5,85,69,50,26.37,26.37,8,2,12,0.00
2012-11-18,52.7,43.6,32.0,35.9,32.4,26.4,90,66,50,26.37,26.37,12,3,13,0.00
2012-11-19,49.3,39.7,25.3,37.7,30.0,18.8,86,69,51,26.37,26.37,9,3,11,0.00
2012-11-20,50.0,34.6,20.8,40.5,25.0,15.9,98,70,43,26.37,26.37,10,3,13,0.00
2012-11-21,60.6,43.0,32.0,35.4,30.0,24.8,84,62,36,26.37,26.37,9,2,13,0.00
2012-11-22,39.2,29.8,17.2,34.7,24.9,11.9,93,82,71,26.37,26.37,20,7,20,0.00
2012-11-23,17.6,14.6,7.7,11.3,5.5,-1.9,80,67,61,26.37,26.37,16,5,17,0.00
2012-11-24,32.2,19.1,5.5,24.5,9.9,-4.0,76,67,62,26.37,26.37,15,4,15,0.00
2012-11-25,31.1,21.8,8.4,23.0,12.3,-1.6,76,66,51,26.37,26.37,11,5,18,0.00
2012-11-26,23.9,13.4,3.0,8.5,0.9,-6.7,63,57,44,26.37,26.37,9,3,10,0.00
2012-11-27,28.0,23.8,18.0,20.6,15.3,6.2,76,70,58,26.37,26.37,5,1,6,0.00
2012-11-28,37.4,28.5,20.5,24.0,20.2,15.4,81,71,54,26.37,26.37,9,2,11,0.00
2012-11-29,26.8,21.3,15.3,20.2,14.1,8.0,83,74,66,26.37,26.37,8,4,11,0.00
2012-11-30,36.1,30.7,26.6,31.9,25.6,19.9,88,81,76,26.37,26.37,15,4,18,0.00
2012-12-1,41.4,36.8,32.2,36.0,31.1,26.7,89,80,60,26.37,26.37,12,4,17,0.00
2012-12-2,50.0,39.9,32.2,43.5,33.7,28.2,98,80,54,26.37,26.37,15,5,17,0.00
2012-12-3,49.8,43.2,24.4,43.7,30.4,10.6,88,61,42,26.37,26.37,17,7,20,0.00
2012-12-4,24.4,19.5,15.8,11.4,6.6,3.7,69,57,48,26.37,26.37,11,4,13,0.00
2012-12-5,38.7,28.6,16.2,22.9,13.5,7.8,71,54,44,26.37,26.37,17,6,20,0.00
2012-12-6,37.9,29.7,19.9,27.5,17.7,8.1,77,61,47,26.37,26.37,13,4,17,0.00
2012-12-7,21.7,19.6,16.5,14.4,9.8,7.3,78,66,56,26.37,26.37,7,2,7,0.00
2012-12-8,31.8,26.9,19.8,28.1,20.7,8.1,90,77,60,26.37,26.37,11,4,13,0.00
2012-12-9,22.8,7.3,-4.2,20.1,3.9,-7.5,89,86,85,26.37,26.37,18,6,18,0.00
2012-12-10,9.3,1.5,-7.8,5.7,-2.0,-11.1,85,85,85,26.37,26.37,10,3,11,0.00
2012-12-11,11.8,8.0,2.7,8.2,4.4,-0.8,85,85,85,26.37,26.37,7,3,9,0.00
2012-12-12,27.1,18.2,7.9,21.2,13.1,4.1,85,80,75,26.37,26.37,13,5,17,0.00
2012-12-13,18.1,13.4,9.3,12.6,8.3,4.7,81,80,76,26.37,26.37,8,3,10,0.00
2012-12-14,30.0,20.7,8.8,22.1,15.1,3.1,89,79,69,26.37,26.37,13,4,15,0.00
2012-12-15,29.1,24.7,15.3,25.8,20.7,9.6,91,85,77,26.37,26.37,9,3,13,0.00
2012-12-16,24.6,22.4,16.3,21.4,18.9,10.8,88,86,80,26.37,26.37,11,4,13,0.00
2012-12-17,23.9,20.4,17.6,20.7,17.2,14.6,89,87,82,26.37,26.37,8,1,8,0.00
2012-12-18,31.1,27.4,23.5,30.1,25.1,20.0,96,91,86,26.37,26.37,6,2,8,0.00
2012-12-19,29.1,22.0,14.2,27.9,16.5,8.8,96,80,62,26.37,26.37,11,4,13,0.00
2012-12-20,19.2,10.9,-1.3,14.1,5.0,-7.0,80,77,76,26.37,0.00,8,4,11,0.00
2012-12-21,10.4,7.6,-1.3,4.3,1.6,-7.0,76,76,76,26.37,0.00,8,3,11,0.00
2012-12-22,14.5,9.4,4.5,7.7,2.2,-1.4,76,72,65,26.37,26.37,11,4,15,0.00
2012-12-23,8.8,4.3,1.9,0.4,-3.6,-5.9,69,69,69,26.37,26.37,11,4,11,0.00
2012-12-24,4.1,-3.2,-8.1,-4.0,-10.9,-15.6,69,69,69,26.37,26.37,9,3,10,0.00
2012-12-25,1.9,-5.8,-12.8,-5.9,-13.3,-20.1,69,69,69,26.37,26.37,6,1,6,0.00
2012-12-26,13.1,4.8,-2.6,4.8,-3.1,-10.2,69,69,69,26.37,26.37,5,1,6,0.00
2012-12-27,17.4,11.2,-2.4,12.0,4.6,-10.0,81,74,69,26.37,26.37,5,1,6,0.00
2012-12-28,15.8,10.3,4.6,11.7,5.9,0.8,84,82,81,26.37,26.37,5,1,8,0.00
2012-12-29,8.2,4.0,-0.8,4.4,0.3,-4.4,84,84,84,26.37,0.00,5,2,6,0.00
2012-12-30,21.2,12.3,4.8,15.1,6.5,1.1,84,78,65,26.37,0.00,9,4,14,0.00
2012-12-31,13.1,-0.1,-8.9,4.3,-7.8,-16.3,69,69,69,26.37,26.37,8,2,12,0.00
2013-1-1,21.7,7.8,-10.1,16.5,1.3,-17.5,84,74,69,26.37,26.37,8,3,11,0.00